sensor_id;sensor_type;location;lat;lon;timestamp;P1;durP1;ratioP1;P2;durP2;ratioP2
79562;SDS011;69026;50.980;11.314;2023-04-15T00:00:09;8.27;;;4.95;;
79562;SDS011;69026;50.980;11.314;2023-04-15T00:02:38;7.65;;;5.18;;
79562;SDS011;69026;50.980;11.314;2023-04-15T00:05:04;8.32;;;5.53;;
79562;SDS011;69026;50.980;11.314;2023-04-15T00:07:30;8.45;;;5.68;;
79562;SDS011;69026;50.980;11.314;2023-04-15T00:09:57;8.73;;;5.68;;
79562;SDS011;69026;50.980;11.314;2023-04-15T00:12:23;7.85;;;5.22;;
79562;SDS011;69026;50.980;11.314;2023-04-15T00:14:50;8.07;;;5.53;;
79562;SDS011;69026;50.980;11.314;2023-04-15T00:17:16;11.52;;;7.38;;
79562;SDS011;69026;50.980;11.314;2023-04-15T00:19:42;9.18;;;5.60;;
79562;SDS011;69026;50.980;11.314;2023-04-15T00:22:10;10.93;;;6.68;;
79562;SDS011;69026;50.980;11.314;2023-04-15T00:24:36;11.43;;;7.18;;
79562;SDS011;69026;50.980;11.314;2023-04-15T00:27:02;9.75;;;6.63;;
79562;SDS011;69026;50.980;11.314;2023-04-15T00:29:28;12.13;;;7.43;;
79562;SDS011;69026;50.980;11.314;2023-04-15T00:31:55;13.57;;;8.70;;
79562;SDS011;69026;50.980;11.314;2023-04-15T00:34:22;9.25;;;6.40;;
79562;SDS011;69026;50.980;11.314;2023-04-15T00:36:48;11.27;;;6.47;;
79562;SDS011;69026;50.980;11.314;2023-04-15T00:39:15;9.30;;;6.95;;
79562;SDS011;69026;50.980;11.314;2023-04-15T00:41:42;12.10;;;7.88;;
79562;SDS011;69026;50.980;11.314;2023-04-15T00:44:08;10.52;;;7.25;;
79562;SDS011;69026;50.980;11.314;2023-04-15T00:46:35;9.43;;;7.45;;
79562;SDS011;69026;50.980;11.314;2023-04-15T00:49:04;9.13;;;5.78;;
79562;SDS011;69026;50.980;11.314;2023-04-15T00:51:35;9.45;;;6.18;;
79562;SDS011;69026;50.980;11.314;2023-04-15T00:54:02;8.82;;;5.85;;
79562;SDS011;69026;50.980;11.314;2023-04-15T00:56:28;10.23;;;6.18;;
79562;SDS011;69026;50.980;11.314;2023-04-15T00:58:55;11.82;;;7.32;;
79562;SDS011;69026;50.980;11.314;2023-04-15T01:01:21;13.80;;;9.25;;
79562;SDS011;69026;50.980;11.314;2023-04-15T01:03:49;9.82;;;6.20;;
79562;SDS011;69026;50.980;11.314;2023-04-15T01:06:16;12.30;;;7.90;;
79562;SDS011;69026;50.980;11.314;2023-04-15T01:08:43;10.15;;;6.75;;
79562;SDS011;69026;50.980;11.314;2023-04-15T01:11:13;11.52;;;7.55;;
79562;SDS011;69026;50.980;11.314;2023-04-15T01:13:40;10.23;;;7.55;;
79562;SDS011;69026;50.980;11.314;2023-04-15T01:16:06;11.43;;;7.90;;
79562;SDS011;69026;50.980;11.314;2023-04-15T01:18:33;13.80;;;9.02;;
79562;SDS011;69026;50.980;11.314;2023-04-15T01:21:00;11.27;;;8.07;;
79562;SDS011;69026;50.980;11.314;2023-04-15T01:23:28;13.40;;;8.63;;
79562;SDS011;69026;50.980;11.314;2023-04-15T01:25:54;12.27;;;7.60;;
79562;SDS011;69026;50.980;11.314;2023-04-15T01:28:21;14.85;;;8.95;;
79562;SDS011;69026;50.980;11.314;2023-04-15T01:30:47;13.18;;;8.60;;
79562;SDS011;69026;50.980;11.314;2023-04-15T01:33:13;14.38;;;9.20;;
79562;SDS011;69026;50.980;11.314;2023-04-15T01:35:59;13.85;;;8.80;;
79562;SDS011;69026;50.980;11.314;2023-04-15T01:38:26;13.75;;;8.35;;
79562;SDS011;69026;50.980;11.314;2023-04-15T01:40:52;12.18;;;7.25;;
79562;SDS011;69026;50.980;11.314;2023-04-15T01:43:19;11.73;;;8.07;;
79562;SDS011;69026;50.980;11.314;2023-04-15T01:45:46;10.90;;;7.22;;
79562;SDS011;69026;50.980;11.314;2023-04-15T01:48:13;9.68;;;6.45;;
79562;SDS011;69026;50.980;11.314;2023-04-15T01:50:40;9.18;;;6.43;;
79562;SDS011;69026;50.980;11.314;2023-04-15T01:53:08;12.23;;;8.35;;
79562;SDS011;69026;50.980;11.314;2023-04-15T01:55:35;10.00;;;6.50;;
79562;SDS011;69026;50.980;11.314;2023-04-15T01:58:02;14.00;;;9.38;;
79562;SDS011;69026;50.980;11.314;2023-04-15T02:00:29;13.43;;;8.68;;
79562;SDS011;69026;50.980;11.314;2023-04-15T02:02:59;12.95;;;8.60;;
79562;SDS011;69026;50.980;11.314;2023-04-15T02:05:26;12.32;;;7.88;;
79562;SDS011;69026;50.980;11.314;2023-04-15T02:07:53;12.05;;;7.70;;
79562;SDS011;69026;50.980;11.314;2023-04-15T02:10:20;11.93;;;8.02;;
79562;SDS011;69026;50.980;11.314;2023-04-15T02:12:47;12.43;;;8.93;;
79562;SDS011;69026;50.980;11.314;2023-04-15T02:15:14;13.05;;;8.65;;
79562;SDS011;69026;50.980;11.314;2023-04-15T02:17:42;15.27;;;9.90;;
79562;SDS011;69026;50.980;11.314;2023-04-15T02:20:11;15.52;;;9.63;;
79562;SDS011;69026;50.980;11.314;2023-04-15T02:22:38;13.40;;;9.40;;
79562;SDS011;69026;50.980;11.314;2023-04-15T02:25:05;12.40;;;9.18;;
79562;SDS011;69026;50.980;11.314;2023-04-15T02:27:34;14.38;;;9.32;;
79562;SDS011;69026;50.980;11.314;2023-04-15T02:30:01;14.32;;;9.00;;
79562;SDS011;69026;50.980;11.314;2023-04-15T02:32:29;10.15;;;7.32;;
79562;SDS011;69026;50.980;11.314;2023-04-15T02:34:58;12.90;;;8.60;;
79562;SDS011;69026;50.980;11.314;2023-04-15T02:37:28;9.98;;;6.65;;
79562;SDS011;69026;50.980;11.314;2023-04-15T02:39:58;12.85;;;9.02;;
79562;SDS011;69026;50.980;11.314;2023-04-15T02:42:25;10.23;;;7.05;;
79562;SDS011;69026;50.980;11.314;2023-04-15T02:44:54;11.52;;;6.95;;
79562;SDS011;69026;50.980;11.314;2023-04-15T02:47:27;14.70;;;8.93;;
79562;SDS011;69026;50.980;11.314;2023-04-15T02:49:54;12.00;;;7.75;;
79562;SDS011;69026;50.980;11.314;2023-04-15T02:52:21;12.32;;;7.40;;
79562;SDS011;69026;50.980;11.314;2023-04-15T02:54:51;14.88;;;9.20;;
79562;SDS011;69026;50.980;11.314;2023-04-15T02:57:20;13.18;;;8.25;;
79562;SDS011;69026;50.980;11.314;2023-04-15T02:59:47;12.55;;;7.88;;
79562;SDS011;69026;50.980;11.314;2023-04-15T03:02:14;15.38;;;10.32;;
79562;SDS011;69026;50.980;11.314;2023-04-15T03:04:41;13.90;;;8.73;;
79562;SDS011;69026;50.980;11.314;2023-04-15T03:07:08;14.73;;;9.77;;
79562;SDS011;69026;50.980;11.314;2023-04-15T03:09:35;13.32;;;9.05;;
79562;SDS011;69026;50.980;11.314;2023-04-15T03:12:03;13.10;;;8.75;;
79562;SDS011;69026;50.980;11.314;2023-04-15T03:14:30;14.60;;;9.07;;
79562;SDS011;69026;50.980;11.314;2023-04-15T03:16:57;14.95;;;9.77;;
79562;SDS011;69026;50.980;11.314;2023-04-15T03:19:25;16.02;;;9.75;;
79562;SDS011;69026;50.980;11.314;2023-04-15T03:21:52;14.43;;;9.23;;
79562;SDS011;69026;50.980;11.314;2023-04-15T03:24:19;13.15;;;8.30;;
79562;SDS011;69026;50.980;11.314;2023-04-15T03:26:46;12.50;;;8.50;;
79562;SDS011;69026;50.980;11.314;2023-04-15T03:29:16;12.80;;;7.65;;
79562;SDS011;69026;50.980;11.314;2023-04-15T03:31:43;10.23;;;7.07;;
79562;SDS011;69026;50.980;11.314;2023-04-15T03:34:11;15.73;;;9.80;;
79562;SDS011;69026;50.980;11.314;2023-04-15T03:36:38;12.38;;;7.90;;
79562;SDS011;69026;50.980;11.314;2023-04-15T03:39:05;14.10;;;8.80;;
79562;SDS011;69026;50.980;11.314;2023-04-15T03:41:32;13.35;;;8.38;;
79562;SDS011;69026;50.980;11.314;2023-04-15T03:43:59;13.57;;;8.43;;
79562;SDS011;69026;50.980;11.314;2023-04-15T03:46:26;12.38;;;9.13;;
79562;SDS011;69026;50.980;11.314;2023-04-15T03:48:53;15.13;;;9.75;;
79562;SDS011;69026;50.980;11.314;2023-04-15T03:51:20;13.85;;;8.98;;
79562;SDS011;69026;50.980;11.314;2023-04-15T03:53:47;12.57;;;8.80;;
79562;SDS011;69026;50.980;11.314;2023-04-15T03:56:14;14.68;;;9.10;;
79562;SDS011;69026;50.980;11.314;2023-04-15T03:58:42;15.95;;;9.98;;
79562;SDS011;69026;50.980;11.314;2023-04-15T04:01:09;14.07;;;8.73;;
79562;SDS011;69026;50.980;11.314;2023-04-15T04:03:36;15.82;;;10.25;;
79562;SDS011;69026;50.980;11.314;2023-04-15T04:06:03;14.30;;;9.10;;
79562;SDS011;69026;50.980;11.314;2023-04-15T04:08:30;17.52;;;10.73;;
79562;SDS011;69026;50.980;11.314;2023-04-15T04:10:57;15.35;;;9.43;;
79562;SDS011;69026;50.980;11.314;2023-04-15T04:13:24;15.00;;;9.20;;
79562;SDS011;69026;50.980;11.314;2023-04-15T04:15:51;13.60;;;7.93;;
79562;SDS011;69026;50.980;11.314;2023-04-15T04:18:18;12.82;;;8.63;;
79562;SDS011;69026;50.980;11.314;2023-04-15T04:20:45;13.98;;;9.73;;
79562;SDS011;69026;50.980;11.314;2023-04-15T04:23:12;13.38;;;8.93;;
79562;SDS011;69026;50.980;11.314;2023-04-15T04:25:39;12.00;;;8.25;;
79562;SDS011;69026;50.980;11.314;2023-04-15T04:28:07;15.57;;;9.70;;
79562;SDS011;69026;50.980;11.314;2023-04-15T04:30:34;13.65;;;8.35;;
79562;SDS011;69026;50.980;11.314;2023-04-15T04:33:01;11.23;;;8.18;;
79562;SDS011;69026;50.980;11.314;2023-04-15T04:35:28;15.32;;;10.13;;
79562;SDS011;69026;50.980;11.314;2023-04-15T04:37:56;14.63;;;9.10;;
79562;SDS011;69026;50.980;11.314;2023-04-15T04:40:23;12.90;;;8.27;;
79562;SDS011;69026;50.980;11.314;2023-04-15T04:42:50;13.35;;;8.55;;
79562;SDS011;69026;50.980;11.314;2023-04-15T04:45:17;15.60;;;10.65;;
79562;SDS011;69026;50.980;11.314;2023-04-15T04:47:44;15.98;;;9.88;;
79562;SDS011;69026;50.980;11.314;2023-04-15T04:50:12;14.65;;;9.18;;
79562;SDS011;69026;50.980;11.314;2023-04-15T04:52:39;15.90;;;9.55;;
79562;SDS011;69026;50.980;11.314;2023-04-15T04:55:06;15.05;;;9.00;;
79562;SDS011;69026;50.980;11.314;2023-04-15T04:57:34;13.82;;;9.30;;
79562;SDS011;69026;50.980;11.314;2023-04-15T05:00:05;14.48;;;9.63;;
79562;SDS011;69026;50.980;11.314;2023-04-15T05:02:34;12.75;;;8.57;;
79562;SDS011;69026;50.980;11.314;2023-04-15T05:05:01;17.58;;;10.32;;
79562;SDS011;69026;50.980;11.314;2023-04-15T05:07:29;13.43;;;8.82;;
79562;SDS011;69026;50.980;11.314;2023-04-15T05:09:56;13.65;;;9.15;;
79562;SDS011;69026;50.980;11.314;2023-04-15T05:12:23;14.55;;;9.68;;
79562;SDS011;69026;50.980;11.314;2023-04-15T05:14:50;12.65;;;7.88;;
79562;SDS011;69026;50.980;11.314;2023-04-15T05:17:17;10.63;;;6.68;;
79562;SDS011;69026;50.980;11.314;2023-04-15T05:19:44;12.32;;;8.23;;
79562;SDS011;69026;50.980;11.314;2023-04-15T05:22:11;16.48;;;10.27;;
79562;SDS011;69026;50.980;11.314;2023-04-15T05:24:38;13.98;;;8.77;;
79562;SDS011;69026;50.980;11.314;2023-04-15T05:27:05;12.82;;;9.38;;
79562;SDS011;69026;50.980;11.314;2023-04-15T05:29:32;15.85;;;9.68;;
79562;SDS011;69026;50.980;11.314;2023-04-15T05:31:59;12.57;;;8.50;;
79562;SDS011;69026;50.980;11.314;2023-04-15T05:34:26;14.35;;;9.23;;
79562;SDS011;69026;50.980;11.314;2023-04-15T05:36:53;16.02;;;9.27;;
79562;SDS011;69026;50.980;11.314;2023-04-15T05:39:20;13.95;;;8.75;;
79562;SDS011;69026;50.980;11.314;2023-04-15T05:41:47;14.63;;;9.02;;
79562;SDS011;69026;50.980;11.314;2023-04-15T05:44:14;10.30;;;7.38;;
79562;SDS011;69026;50.980;11.314;2023-04-15T05:46:41;14.18;;;9.30;;
79562;SDS011;69026;50.980;11.314;2023-04-15T05:49:08;14.43;;;9.07;;
79562;SDS011;69026;50.980;11.314;2023-04-15T05:51:36;14.95;;;9.48;;
79562;SDS011;69026;50.980;11.314;2023-04-15T05:54:03;12.93;;;8.70;;
79562;SDS011;69026;50.980;11.314;2023-04-15T05:56:30;15.52;;;9.45;;
79562;SDS011;69026;50.980;11.314;2023-04-15T05:58:57;14.38;;;9.63;;
79562;SDS011;69026;50.980;11.314;2023-04-15T06:01:24;15.48;;;9.70;;
79562;SDS011;69026;50.980;11.314;2023-04-15T06:03:51;12.40;;;8.73;;
79562;SDS011;69026;50.980;11.314;2023-04-15T06:06:18;10.75;;;7.70;;
79562;SDS011;69026;50.980;11.314;2023-04-15T06:08:46;10.98;;;7.10;;
79562;SDS011;69026;50.980;11.314;2023-04-15T06:11:13;11.98;;;8.05;;
79562;SDS011;69026;50.980;11.314;2023-04-15T06:13:40;9.05;;;6.40;;
79562;SDS011;69026;50.980;11.314;2023-04-15T06:16:07;12.75;;;8.55;;
79562;SDS011;69026;50.980;11.314;2023-04-15T06:18:34;12.00;;;8.07;;
79562;SDS011;69026;50.980;11.314;2023-04-15T06:21:01;14.40;;;9.35;;
79562;SDS011;69026;50.980;11.314;2023-04-15T06:23:28;13.35;;;9.60;;
79562;SDS011;69026;50.980;11.314;2023-04-15T06:25:55;12.10;;;8.27;;
79562;SDS011;69026;50.980;11.314;2023-04-15T06:28:22;16.02;;;9.98;;
79562;SDS011;69026;50.980;11.314;2023-04-15T06:30:49;14.25;;;8.30;;
79562;SDS011;69026;50.980;11.314;2023-04-15T06:33:17;13.10;;;8.73;;
79562;SDS011;69026;50.980;11.314;2023-04-15T06:35:44;13.80;;;8.60;;
79562;SDS011;69026;50.980;11.314;2023-04-15T06:38:11;14.73;;;9.18;;
79562;SDS011;69026;50.980;11.314;2023-04-15T06:40:38;13.85;;;9.13;;
79562;SDS011;69026;50.980;11.314;2023-04-15T06:43:05;14.80;;;9.32;;
79562;SDS011;69026;50.980;11.314;2023-04-15T06:45:33;15.95;;;9.90;;
79562;SDS011;69026;50.980;11.314;2023-04-15T06:48:00;12.55;;;9.13;;
79562;SDS011;69026;50.980;11.314;2023-04-15T06:50:28;13.60;;;9.00;;
79562;SDS011;69026;50.980;11.314;2023-04-15T06:52:55;13.20;;;8.45;;
79562;SDS011;69026;50.980;11.314;2023-04-15T06:55:22;13.15;;;8.75;;
79562;SDS011;69026;50.980;11.314;2023-04-15T06:57:49;11.55;;;7.68;;
79562;SDS011;69026;50.980;11.314;2023-04-15T07:00:17;10.95;;;7.20;;
79562;SDS011;69026;50.980;11.314;2023-04-15T07:02:44;10.50;;;6.50;;
79562;SDS011;69026;50.980;11.314;2023-04-15T07:05:12;12.50;;;8.13;;
79562;SDS011;69026;50.980;11.314;2023-04-15T07:07:39;11.93;;;7.70;;
79562;SDS011;69026;50.980;11.314;2023-04-15T07:10:06;11.82;;;7.35;;
79562;SDS011;69026;50.980;11.314;2023-04-15T07:12:34;12.80;;;7.30;;
79562;SDS011;69026;50.980;11.314;2023-04-15T07:15:01;11.27;;;7.45;;
79562;SDS011;69026;50.980;11.314;2023-04-15T07:17:29;11.40;;;8.40;;
79562;SDS011;69026;50.980;11.314;2023-04-15T07:19:56;11.25;;;7.63;;
79562;SDS011;69026;50.980;11.314;2023-04-15T07:22:23;9.73;;;6.53;;
79562;SDS011;69026;50.980;11.314;2023-04-15T07:24:50;11.57;;;7.80;;
79562;SDS011;69026;50.980;11.314;2023-04-15T07:27:17;9.48;;;6.78;;
79562;SDS011;69026;50.980;11.314;2023-04-15T07:29:44;10.73;;;7.78;;
79562;SDS011;69026;50.980;11.314;2023-04-15T07:32:11;10.85;;;6.95;;
79562;SDS011;69026;50.980;11.314;2023-04-15T07:34:38;13.88;;;6.53;;
79562;SDS011;69026;50.980;11.314;2023-04-15T07:37:07;10.57;;;6.70;;
79562;SDS011;69026;50.980;11.314;2023-04-15T07:39:34;12.82;;;6.40;;
79562;SDS011;69026;50.980;11.314;2023-04-15T07:42:02;11.18;;;6.70;;
79562;SDS011;69026;50.980;11.314;2023-04-15T07:44:30;10.77;;;6.65;;
79562;SDS011;69026;50.980;11.314;2023-04-15T07:46:57;10.73;;;6.22;;
79562;SDS011;69026;50.980;11.314;2023-04-15T07:49:24;11.75;;;6.28;;
79562;SDS011;69026;50.980;11.314;2023-04-15T07:51:51;10.80;;;6.35;;
79562;SDS011;69026;50.980;11.314;2023-04-15T07:54:18;10.18;;;6.20;;
79562;SDS011;69026;50.980;11.314;2023-04-15T07:56:45;10.65;;;6.53;;
79562;SDS011;69026;50.980;11.314;2023-04-15T07:59:13;11.38;;;6.32;;
79562;SDS011;69026;50.980;11.314;2023-04-15T08:01:43;9.82;;;5.72;;
79562;SDS011;69026;50.980;11.314;2023-04-15T08:04:10;8.63;;;5.72;;
79562;SDS011;69026;50.980;11.314;2023-04-15T08:06:37;11.10;;;5.93;;
79562;SDS011;69026;50.980;11.314;2023-04-15T08:09:05;9.38;;;6.07;;
79562;SDS011;69026;50.980;11.314;2023-04-15T08:11:33;8.60;;;5.53;;
79562;SDS011;69026;50.980;11.314;2023-04-15T08:14:00;10.02;;;5.63;;
79562;SDS011;69026;50.980;11.314;2023-04-15T08:16:27;9.13;;;5.50;;
79562;SDS011;69026;50.980;11.314;2023-04-15T08:18:55;11.50;;;5.80;;
79562;SDS011;69026;50.980;11.314;2023-04-15T08:21:22;10.98;;;6.93;;
79562;SDS011;69026;50.980;11.314;2023-04-15T08:23:50;11.68;;;6.78;;
79562;SDS011;69026;50.980;11.314;2023-04-15T08:26:19;11.18;;;7.30;;
79562;SDS011;69026;50.980;11.314;2023-04-15T08:28:47;13.05;;;6.35;;
79562;SDS011;69026;50.980;11.314;2023-04-15T08:31:15;9.63;;;6.32;;
79562;SDS011;69026;50.980;11.314;2023-04-15T08:33:43;11.75;;;5.97;;
79562;SDS011;69026;50.980;11.314;2023-04-15T08:36:11;10.52;;;6.55;;
79562;SDS011;69026;50.980;11.314;2023-04-15T08:38:39;7.55;;;4.88;;
79562;SDS011;69026;50.980;11.314;2023-04-15T08:41:08;6.88;;;4.57;;
79562;SDS011;69026;50.980;11.314;2023-04-15T08:43:46;7.88;;;5.05;;
79562;SDS011;69026;50.980;11.314;2023-04-15T08:46:19;7.88;;;4.70;;
79562;SDS011;69026;50.980;11.314;2023-04-15T08:48:46;9.23;;;5.00;;
79562;SDS011;69026;50.980;11.314;2023-04-15T08:51:15;9.35;;;4.78;;
79562;SDS011;69026;50.980;11.314;2023-04-15T08:53:43;7.97;;;4.28;;
79562;SDS011;69026;50.980;11.314;2023-04-15T08:56:13;7.38;;;5.25;;
79562;SDS011;69026;50.980;11.314;2023-04-15T08:58:45;9.88;;;5.28;;
79562;SDS011;69026;50.980;11.314;2023-04-15T09:01:13;8.05;;;4.20;;
79562;SDS011;69026;50.980;11.314;2023-04-15T09:03:40;8.65;;;4.50;;
79562;SDS011;69026;50.980;11.314;2023-04-15T09:06:08;7.60;;;4.82;;
79562;SDS011;69026;50.980;11.314;2023-04-15T09:08:35;5.53;;;3.95;;
79562;SDS011;69026;50.980;11.314;2023-04-15T09:11:02;6.80;;;4.43;;
79562;SDS011;69026;50.980;11.314;2023-04-15T09:13:30;8.00;;;4.68;;
79562;SDS011;69026;50.980;11.314;2023-04-15T09:15:57;8.88;;;4.45;;
79562;SDS011;69026;50.980;11.314;2023-04-15T09:18:29;6.57;;;4.40;;
79562;SDS011;69026;50.980;11.314;2023-04-15T09:23:34;8.48;;;4.30;;
79562;SDS011;69026;50.980;11.314;2023-04-15T09:26:02;6.38;;;4.00;;
79562;SDS011;69026;50.980;11.314;2023-04-15T09:28:29;8.55;;;4.57;;
79562;SDS011;69026;50.980;11.314;2023-04-15T09:30:57;5.20;;;3.67;;
79562;SDS011;69026;50.980;11.314;2023-04-15T09:33:26;10.13;;;4.93;;
79562;SDS011;69026;50.980;11.314;2023-04-15T09:36:00;6.80;;;4.40;;
79562;SDS011;69026;50.980;11.314;2023-04-15T09:38:29;6.43;;;3.63;;
79562;SDS011;69026;50.980;11.314;2023-04-15T09:40:57;5.53;;;3.38;;
79562;SDS011;69026;50.980;11.314;2023-04-15T09:43:37;7.43;;;3.67;;
79562;SDS011;69026;50.980;11.314;2023-04-15T09:46:06;5.78;;;3.50;;
79562;SDS011;69026;50.980;11.314;2023-04-15T09:48:33;5.20;;;3.22;;
79562;SDS011;69026;50.980;11.314;2023-04-15T09:51:00;5.72;;;3.13;;
79562;SDS011;69026;50.980;11.314;2023-04-15T09:53:27;5.30;;;3.05;;
79562;SDS011;69026;50.980;11.314;2023-04-15T09:55:55;6.65;;;3.42;;
79562;SDS011;69026;50.980;11.314;2023-04-15T09:58:24;4.38;;;2.70;;
79562;SDS011;69026;50.980;11.314;2023-04-15T10:00:53;6.05;;;3.65;;
79562;SDS011;69026;50.980;11.314;2023-04-15T10:03:23;5.32;;;3.08;;
79562;SDS011;69026;50.980;11.314;2023-04-15T10:05:55;4.95;;;3.22;;
79562;SDS011;69026;50.980;11.314;2023-04-15T10:08:25;6.07;;;4.15;;
79562;SDS011;69026;50.980;11.314;2023-04-15T10:10:54;6.43;;;4.10;;
79562;SDS011;69026;50.980;11.314;2023-04-15T10:13:23;5.68;;;4.00;;
79562;SDS011;69026;50.980;11.314;2023-04-15T10:15:55;6.40;;;4.22;;
79562;SDS011;69026;50.980;11.314;2023-04-15T10:18:24;7.78;;;3.95;;
79562;SDS011;69026;50.980;11.314;2023-04-15T10:20:53;6.32;;;4.10;;
79562;SDS011;69026;50.980;11.314;2023-04-15T10:23:21;5.60;;;3.25;;
79562;SDS011;69026;50.980;11.314;2023-04-15T10:28:18;7.32;;;4.43;;
79562;SDS011;69026;50.980;11.314;2023-04-15T10:30:45;6.90;;;4.03;;
79562;SDS011;69026;50.980;11.314;2023-04-15T10:33:13;5.57;;;3.97;;
79562;SDS011;69026;50.980;11.314;2023-04-15T10:35:42;7.80;;;4.63;;
79562;SDS011;69026;50.980;11.314;2023-04-15T10:43:55;7.93;;;4.20;;
79562;SDS011;69026;50.980;11.314;2023-04-15T10:46:34;7.55;;;4.35;;
79562;SDS011;69026;50.980;11.314;2023-04-15T10:49:14;7.90;;;4.35;;
79562;SDS011;69026;50.980;11.314;2023-04-15T10:51:43;6.90;;;3.95;;
79562;SDS011;69026;50.980;11.314;2023-04-15T10:54:12;6.78;;;4.22;;
79562;SDS011;69026;50.980;11.314;2023-04-15T10:56:42;8.48;;;4.57;;
79562;SDS011;69026;50.980;11.314;2023-04-15T10:59:10;7.63;;;4.38;;
79562;SDS011;69026;50.980;11.314;2023-04-15T11:01:54;7.82;;;3.70;;
79562;SDS011;69026;50.980;11.314;2023-04-15T11:07:36;6.55;;;3.58;;
79562;SDS011;69026;50.980;11.314;2023-04-15T11:12:44;4.72;;;2.97;;
79562;SDS011;69026;50.980;11.314;2023-04-15T11:15:32;5.93;;;3.10;;
79562;SDS011;69026;50.980;11.314;2023-04-15T11:18:10;6.30;;;3.55;;
79562;SDS011;69026;50.980;11.314;2023-04-15T11:20:55;6.20;;;3.45;;
79562;SDS011;69026;50.980;11.314;2023-04-15T11:23:28;6.70;;;4.15;;
79562;SDS011;69026;50.980;11.314;2023-04-15T11:26:03;6.50;;;3.60;;
79562;SDS011;69026;50.980;11.314;2023-04-15T11:28:35;5.00;;;2.95;;
79562;SDS011;69026;50.980;11.314;2023-04-15T11:31:13;5.95;;;3.70;;
79562;SDS011;69026;50.980;11.314;2023-04-15T11:33:59;6.45;;;3.88;;
79562;SDS011;69026;50.980;11.314;2023-04-15T11:36:28;5.65;;;3.80;;
79562;SDS011;69026;50.980;11.314;2023-04-15T11:38:58;5.28;;;3.25;;
79562;SDS011;69026;50.980;11.314;2023-04-15T11:41:25;5.82;;;3.33;;
79562;SDS011;69026;50.980;11.314;2023-04-15T11:43:52;5.15;;;2.80;;
79562;SDS011;69026;50.980;11.314;2023-04-15T11:46:19;6.03;;;3.40;;
79562;SDS011;69026;50.980;11.314;2023-04-15T11:48:47;5.40;;;3.28;;
79562;SDS011;69026;50.980;11.314;2023-04-15T11:51:14;5.15;;;3.38;;
79562;SDS011;69026;50.980;11.314;2023-04-15T11:56:17;4.55;;;2.95;;
79562;SDS011;69026;50.980;11.314;2023-04-15T11:58:45;5.55;;;3.65;;
79562;SDS011;69026;50.980;11.314;2023-04-15T12:01:11;5.05;;;3.20;;
79562;SDS011;69026;50.980;11.314;2023-04-15T12:03:42;4.40;;;3.35;;
79562;SDS011;69026;50.980;11.314;2023-04-15T12:06:13;6.05;;;2.60;;
79562;SDS011;69026;50.980;11.314;2023-04-15T12:11:33;4.63;;;2.90;;
79562;SDS011;69026;50.980;11.314;2023-04-15T12:14:17;8.68;;;2.50;;
79562;SDS011;69026;50.980;11.314;2023-04-15T12:19:14;3.53;;;2.50;;
79562;SDS011;69026;50.980;11.314;2023-04-15T12:21:45;5.50;;;3.53;;
79562;SDS011;69026;50.980;11.314;2023-04-15T12:24:13;4.75;;;2.90;;
79562;SDS011;69026;50.980;11.314;2023-04-15T12:26:45;4.00;;;2.55;;
79562;SDS011;69026;50.980;11.314;2023-04-15T12:29:13;4.38;;;2.75;;
79562;SDS011;69026;50.980;11.314;2023-04-15T12:31:54;5.68;;;2.92;;
79562;SDS011;69026;50.980;11.314;2023-04-15T12:34:28;6.68;;;3.50;;
79562;SDS011;69026;50.980;11.314;2023-04-15T12:36:58;3.55;;;2.17;;
79562;SDS011;69026;50.980;11.314;2023-04-15T12:39:38;5.40;;;3.58;;
79562;SDS011;69026;50.980;11.314;2023-04-15T12:42:06;14.50;;;3.53;;
79562;SDS011;69026;50.980;11.314;2023-04-15T12:44:32;3.58;;;2.20;;
79562;SDS011;69026;50.980;11.314;2023-04-15T12:46:59;4.25;;;1.85;;
79562;SDS011;69026;50.980;11.314;2023-04-15T12:49:25;5.57;;;2.58;;
79562;SDS011;69026;50.980;11.314;2023-04-15T12:51:53;5.47;;;2.58;;
79562;SDS011;69026;50.980;11.314;2023-04-15T12:54:20;3.65;;;2.20;;
79562;SDS011;69026;50.980;11.314;2023-04-15T12:56:47;5.85;;;2.78;;
79562;SDS011;69026;50.980;11.314;2023-04-15T12:59:14;4.43;;;2.30;;
79562;SDS011;69026;50.980;11.314;2023-04-15T13:01:42;5.22;;;2.78;;
79562;SDS011;69026;50.980;11.314;2023-04-15T13:04:07;6.00;;;3.33;;
79562;SDS011;69026;50.980;11.314;2023-04-15T13:06:33;3.53;;;2.22;;
79562;SDS011;69026;50.980;11.314;2023-04-15T13:08:59;4.85;;;2.45;;
79562;SDS011;69026;50.980;11.314;2023-04-15T13:11:26;6.80;;;2.50;;
79562;SDS011;69026;50.980;11.314;2023-04-15T13:13:55;3.35;;;2.17;;
79562;SDS011;69026;50.980;11.314;2023-04-15T13:16:22;4.53;;;2.38;;
79562;SDS011;69026;50.980;11.314;2023-04-15T13:18:49;4.25;;;2.30;;
79562;SDS011;69026;50.980;11.314;2023-04-15T13:21:15;4.85;;;2.90;;
79562;SDS011;69026;50.980;11.314;2023-04-15T13:23:41;4.40;;;2.35;;
79562;SDS011;69026;50.980;11.314;2023-04-15T13:26:07;3.28;;;2.05;;
79562;SDS011;69026;50.980;11.314;2023-04-15T13:28:33;4.53;;;2.28;;
79562;SDS011;69026;50.980;11.314;2023-04-15T13:30:59;3.58;;;1.70;;
79562;SDS011;69026;50.980;11.314;2023-04-15T13:33:25;6.38;;;2.50;;
79562;SDS011;69026;50.980;11.314;2023-04-15T13:35:51;5.88;;;2.20;;
79562;SDS011;69026;50.980;11.314;2023-04-15T13:38:17;5.90;;;2.10;;
79562;SDS011;69026;50.980;11.314;2023-04-15T13:40:43;4.75;;;2.22;;
79562;SDS011;69026;50.980;11.314;2023-04-15T13:43:09;7.20;;;3.03;;
79562;SDS011;69026;50.980;11.314;2023-04-15T13:45:35;6.30;;;2.30;;
79562;SDS011;69026;50.980;11.314;2023-04-15T13:48:01;4.70;;;2.60;;
79562;SDS011;69026;50.980;11.314;2023-04-15T13:50:28;7.18;;;2.42;;
79562;SDS011;69026;50.980;11.314;2023-04-15T13:52:53;4.90;;;2.53;;
79562;SDS011;69026;50.980;11.314;2023-04-15T13:55:20;5.55;;;2.33;;
79562;SDS011;69026;50.980;11.314;2023-04-15T13:57:45;5.75;;;2.13;;
79562;SDS011;69026;50.980;11.314;2023-04-15T14:00:12;8.30;;;3.28;;
79562;SDS011;69026;50.980;11.314;2023-04-15T14:02:38;8.70;;;2.80;;
79562;SDS011;69026;50.980;11.314;2023-04-15T14:05:04;9.15;;;2.70;;
79562;SDS011;69026;50.980;11.314;2023-04-15T14:07:31;5.03;;;2.47;;
79562;SDS011;69026;50.980;11.314;2023-04-15T14:09:57;4.70;;;2.30;;
79562;SDS011;69026;50.980;11.314;2023-04-15T14:12:22;4.50;;;2.13;;
79562;SDS011;69026;50.980;11.314;2023-04-15T14:14:48;5.03;;;2.53;;
79562;SDS011;69026;50.980;11.314;2023-04-15T14:17:14;5.53;;;2.47;;
79562;SDS011;69026;50.980;11.314;2023-04-15T14:19:40;5.22;;;2.67;;
79562;SDS011;69026;50.980;11.314;2023-04-15T14:22:06;6.07;;;2.58;;
79562;SDS011;69026;50.980;11.314;2023-04-15T14:24:31;4.70;;;1.95;;
79562;SDS011;69026;50.980;11.314;2023-04-15T14:26:57;3.88;;;1.85;;
79562;SDS011;69026;50.980;11.314;2023-04-15T14:29:23;4.32;;;1.70;;
79562;SDS011;69026;50.980;11.314;2023-04-15T14:31:49;6.57;;;1.95;;
79562;SDS011;69026;50.980;11.314;2023-04-15T14:34:15;5.13;;;1.83;;
79562;SDS011;69026;50.980;11.314;2023-04-15T14:36:42;11.85;;;2.60;;
79562;SDS011;69026;50.980;11.314;2023-04-15T14:39:09;4.10;;;1.40;;
79562;SDS011;69026;50.980;11.314;2023-04-15T14:41:35;6.50;;;2.00;;
79562;SDS011;69026;50.980;11.314;2023-04-15T14:44:02;5.20;;;2.10;;
79562;SDS011;69026;50.980;11.314;2023-04-15T14:46:28;5.30;;;1.92;;
79562;SDS011;69026;50.980;11.314;2023-04-15T14:48:53;6.75;;;2.20;;
79562;SDS011;69026;50.980;11.314;2023-04-15T14:51:19;4.35;;;1.77;;
79562;SDS011;69026;50.980;11.314;2023-04-15T14:53:45;3.78;;;2.15;;
79562;SDS011;69026;50.980;11.314;2023-04-15T14:56:11;3.97;;;1.58;;